Friendship, ME

5:01 AM EDT on August 24, 2016 (GMT -0400)
Knox County Regional

Weather History for KRKD - March, 2014

Change the Weather History Date:

Monday, March 31, 2014

  Actual Average Record
Temperature  
Mean Temperature 34 °F -  
Max Temperature 35 °F 41 °F 75 °F (1998)
Min Temperature 32 °F 29 °F 21 °F (2012)
Degree Days  
Heating Degree Days 32    
Moisture  
Dew Point 28 °F    
Average Humidity 79    
Maximum Humidity 87    
Minimum Humidity 70    
Precipitation  
Precipitation 0.01 in - - ()
Sea Level Pressure  
Sea Level Pressure 29.83 in    
Wind  
Wind Speed 13 mph (North)    
Max Wind Speed 20 mph    
Max Gust Speed 34 mph    
Visibility 9 miles    
Events      
Averages and records for this station are not official NWS values.
T = Trace of Precipitation, MM = Missing Value Source: NWS Daily Summary

Daily Weather History Graph

Daily Weather History Graph

Search for Another Location

Airport or City:

Trip Planner

Search our weather history database for the weather conditions in past years. The results will help you decide how hot, cold, wet, or windy it might be!

Date:

Astronomy

Mar. 31, 2014 Rise Set
Actual Time 6:19 AM EDT 7:02 PM EDT
Civil Twilight 5:50 AM EDT 7:31 PM EDT
Nautical Twilight 5:15 AM EDT 8:06 PM EDT
Astronomical Twilight 4:40 AM EDT 8:42 PM EDT
Moon 6:38 AM EDT (3/31) 8:20 PM EDT (3/31)
Length of Visible Light 13h 40m
Length of Day
12h 42m
New Moon, 1% of the Moon is Illuminated
Mar 31
New Moon
Apr 7
First Quarter
Apr 15
Full
Apr 22
Last Quarter
Apr 29
New

Hourly Weather History & Observations

Time (EDT) Temp. Windchill Dew Point Humidity Pressure Visibility Wind Dir Wind Speed Gust Speed Precip Events Conditions
12:15 AM 33.8 °F 23.9 °F 30.2 °F 87% 29.75 in 10.0 mi NNE 15.0 mph 28.8 mph N/A   Overcast
12:35 AM 33.8 °F 23.5 °F 30.2 °F 87% 29.73 in 10.0 mi North 16.1 mph 24.2 mph N/A   Overcast
12:55 AM 33.8 °F 23.9 °F 30.2 °F 87% 29.73 in 10.0 mi NNE 15.0 mph 25.3 mph N/A   Overcast
1:15 AM 33.8 °F 23.9 °F 28.4 °F 81% 29.74 in 10.0 mi North 15.0 mph 25.3 mph N/A   Overcast
1:35 AM 33.8 °F 24.3 °F 28.4 °F 81% 29.73 in 10.0 mi North 13.8 mph 26.5 mph N/A   Overcast
1:55 AM 33.8 °F 26.4 °F 28.4 °F 81% 29.72 in 10.0 mi North 9.2 mph 27.6 mph N/A   Overcast
2:15 AM 33.8 °F 25.3 °F 28.4 °F 81% 29.73 in 10.0 mi North 11.5 mph 25.3 mph N/A   Overcast
2:35 AM 33.8 °F 24.3 °F 30.2 °F 87% 29.72 in 10.0 mi North 13.8 mph 24.2 mph N/A   Overcast
2:55 AM 33.8 °F 25.3 °F 28.4 °F 81% 29.73 in 10.0 mi North 11.5 mph 25.3 mph N/A   Overcast
3:15 AM 33.8 °F 25.8 °F 28.4 °F 81% 29.73 in 10.0 mi North 10.4 mph 24.2 mph N/A   Overcast
3:35 AM 33.8 °F 24.3 °F 28.4 °F 81% 29.73 in 10.0 mi NNE 13.8 mph 27.6 mph N/A   Overcast
3:55 AM 33.8 °F 25.8 °F 28.4 °F 81% 29.73 in 10.0 mi North 10.4 mph 25.3 mph N/A   Overcast
4:15 AM 33.8 °F 24.3 °F 28.4 °F 81% 29.74 in 10.0 mi NNE 13.8 mph 26.5 mph N/A   Overcast
4:35 AM 33.8 °F 25.3 °F 28.4 °F 81% 29.75 in 10.0 mi North 11.5 mph 21.9 mph N/A   Overcast
4:55 AM 33.8 °F 24.3 °F 28.4 °F 81% 29.74 in 10.0 mi North 13.8 mph 26.5 mph N/A   Overcast
5:15 AM 33.8 °F 25.3 °F 28.4 °F 81% 29.74 in 10.0 mi NNE 11.5 mph 26.5 mph N/A   Overcast
5:35 AM 33.8 °F 24.8 °F 28.4 °F 81% 29.74 in 10.0 mi NNE 12.7 mph 26.5 mph N/A   Overcast
5:55 AM 33.8 °F 24.8 °F 28.4 °F 81% 29.74 in 10.0 mi North 12.7 mph 23.0 mph N/A   Overcast
6:15 AM 33.8 °F 27.0 °F 28.4 °F 81% 29.76 in 10.0 mi North 8.1 mph 25.3 mph N/A   Overcast
6:35 AM 33.8 °F 23.2 °F 28.4 °F 81% 29.75 in 10.0 mi NNE 17.3 mph 27.6 mph N/A   Overcast
6:55 AM 33.8 °F 24.8 °F 28.4 °F 81% 29.76 in 10.0 mi NNE 12.7 mph 25.3 mph N/A   Overcast
7:15 AM 32.0 °F 21.6 °F 28.4 °F 87% 29.77 in 10.0 mi North 15.0 mph 25.3 mph N/A   Overcast
7:35 AM 33.8 °F 25.3 °F 28.4 °F 81% 29.78 in 10.0 mi North 11.5 mph 21.9 mph N/A   Overcast
7:55 AM 33.8 °F 25.3 °F 28.4 °F 81% 29.78 in 10.0 mi NNE 11.5 mph 26.5 mph N/A   Overcast
8:15 AM 33.8 °F 24.8 °F 28.4 °F 81% 29.80 in 10.0 mi NNE 12.7 mph 24.2 mph N/A   Overcast
8:35 AM 33.8 °F 24.3 °F 28.4 °F 81% 29.80 in 10.0 mi North 13.8 mph 24.2 mph N/A   Overcast
8:55 AM 33.8 °F 26.4 °F 28.4 °F 81% 29.78 in 10.0 mi North 9.2 mph 17.3 mph N/A   Overcast
9:15 AM 33.8 °F 25.8 °F 28.4 °F 81% 29.79 in 10.0 mi North 10.4 mph 21.9 mph N/A   Overcast
9:35 AM 33.8 °F 26.4 °F 28.4 °F 81% 29.80 in 10.0 mi North 9.2 mph 23.0 mph N/A   Overcast
9:55 AM 33.8 °F 25.8 °F 28.4 °F 81% 29.81 in 10.0 mi North 10.4 mph 24.2 mph N/A   Overcast
10:15 AM 33.8 °F 25.8 °F 28.4 °F 81% 29.81 in 10.0 mi North 10.4 mph 23.0 mph N/A   Overcast
10:35 AM 33.8 °F 24.3 °F 28.4 °F 81% 29.82 in 10.0 mi North 13.8 mph 25.3 mph N/A   Overcast
10:55 AM 33.8 °F 25.3 °F 28.4 °F 81% 29.82 in 10.0 mi North 11.5 mph 24.2 mph N/A   Overcast
11:15 AM 35.6 °F 26.2 °F 26.6 °F 70% 29.82 in 10.0 mi North 15.0 mph 26.5 mph N/A   Overcast
11:35 AM 35.6 °F 26.6 °F 26.6 °F 70% 29.81 in 10.0 mi North 13.8 mph 28.8 mph N/A   Overcast
11:55 AM 35.6 °F 28.6 °F 28.4 °F 75% 29.80 in 10.0 mi North 9.2 mph 24.2 mph N/A   Overcast
12:15 PM 35.6 °F 26.6 °F 26.6 °F 70% 29.80 in 10.0 mi North 13.8 mph 24.2 mph N/A   Overcast
12:35 PM 35.6 °F 28.0 °F 28.4 °F 75% 29.79 in 10.0 mi North 10.4 mph 23.0 mph N/A   Overcast
12:55 PM 35.6 °F 25.9 °F 28.4 °F 75% 29.80 in 10.0 mi North 16.1 mph 26.5 mph N/A   Overcast
1:15 PM 33.8 °F 23.9 °F 28.4 °F 81% 29.82 in 6.0 mi NNE 15.0 mph 28.8 mph N/A   Overcast
1:35 PM 33.8 °F 24.3 °F 30.2 °F 87% 29.82 in 5.0 mi NNE 13.8 mph 25.3 mph N/A   Overcast
1:55 PM 33.8 °F 24.3 °F 28.4 °F 81% 29.82 in 10.0 mi North 13.8 mph 25.3 mph N/A   Overcast
2:15 PM 33.8 °F 23.5 °F 28.4 °F 81% 29.81 in 10.0 mi North 16.1 mph 26.5 mph N/A   Overcast
2:35 PM 35.6 °F 26.6 °F 28.4 °F 75% 29.82 in 6.0 mi North 13.8 mph 25.3 mph 0.01 in   Overcast
2:55 PM 35.6 °F 28.0 °F 28.4 °F 75% 29.83 in 10.0 mi NNE 10.4 mph 24.2 mph 0.01 in   Overcast
3:15 PM 35.6 °F 24.8 °F 28.4 °F 75% 29.84 in 10.0 mi North 19.6 mph 32.2 mph N/A   Overcast
3:35 PM 35.6 °F 28.6 °F 28.4 °F 75% 29.85 in 10.0 mi North 9.2 mph 23.0 mph N/A   Overcast
3:55 PM 35.6 °F 27.1 °F 28.4 °F 75% 29.85 in 9.0 mi North 12.7 mph 25.3 mph N/A   Overcast
4:15 PM 35.6 °F 26.6 °F 28.4 °F 75% 29.85 in 10.0 mi North 13.8 mph 32.2 mph N/A   Overcast
4:35 PM 35.6 °F 27.5 °F 28.4 °F 75% 29.85 in 10.0 mi North 11.5 mph 26.5 mph N/A   Overcast
4:55 PM 33.8 °F 24.3 °F 28.4 °F 81% 29.86 in 10.0 mi North 13.8 mph 25.3 mph N/A   Overcast
5:15 PM 35.6 °F 28.0 °F 28.4 °F 75% 29.86 in 10.0 mi North 10.4 mph 25.3 mph N/A   Overcast
5:35 PM 33.8 °F 24.8 °F 28.4 °F 81% 29.87 in 7.0 mi North 12.7 mph 25.3 mph N/A   Overcast
5:55 PM 33.8 °F 25.8 °F 28.4 °F 81% 29.87 in 8.0 mi North 10.4 mph 20.7 mph N/A   Overcast
6:15 PM 33.8 °F 25.8 °F 28.4 °F 81% 29.88 in 10.0 mi North 10.4 mph 21.9 mph N/A   Overcast
6:35 PM 35.6 °F 28.0 °F 28.4 °F 75% 29.89 in 10.0 mi North 10.4 mph 21.9 mph N/A   Overcast
6:55 PM 35.6 °F 28.0 °F 28.4 °F 75% 29.90 in 10.0 mi North 10.4 mph 23.0 mph N/A   Overcast
7:15 PM 35.6 °F 27.5 °F 26.6 °F 70% 29.92 in 10.0 mi North 11.5 mph 31.1 mph N/A   Overcast
7:35 PM 33.8 °F 27.0 °F 26.6 °F 75% 29.93 in 10.0 mi North 8.1 mph 16.1 mph N/A   Overcast
7:55 PM 33.8 °F 23.9 °F 26.6 °F 75% 29.93 in 10.0 mi NNE 15.0 mph 24.2 mph N/A   Overcast
8:15 PM 33.8 °F 27.0 °F 26.6 °F 75% 29.94 in 10.0 mi NNE 8.1 mph 34.5 mph N/A   Overcast
8:35 PM 33.8 °F 23.2 °F 26.6 °F 75% 29.95 in 10.0 mi North 17.3 mph 31.1 mph N/A   Overcast
8:55 PM 33.8 °F 24.8 °F 26.6 °F 75% 29.95 in 10.0 mi North 12.7 mph 25.3 mph N/A   Overcast
9:15 PM 33.8 °F 25.3 °F 26.6 °F 75% 29.96 in 9.0 mi North 11.5 mph 23.0 mph N/A   Overcast
9:35 PM 33.8 °F 25.3 °F 26.6 °F 75% 29.97 in 7.0 mi North 11.5 mph 24.2 mph N/A   Overcast
9:55 PM 33.8 °F 26.4 °F 28.4 °F 81% 29.97 in 5.0 mi North 9.2 mph 18.4 mph N/A   Overcast
10:15 PM 33.8 °F 28.6 °F 26.6 °F 75% 29.98 in 8.0 mi North 5.8 mph 18.4 mph N/A   Overcast
10:35 PM 33.8 °F 26.4 °F 26.6 °F 75% 29.98 in 8.0 mi NNE 9.2 mph 23.0 mph N/A   Overcast
10:55 PM 33.8 °F 25.3 °F 26.6 °F 75% 29.98 in 8.0 mi North 11.5 mph 21.9 mph N/A   Overcast
11:15 PM 32.0 °F 25.6 °F 26.6 °F 80% 29.98 in 4.0 mi North 6.9 mph 18.4 mph N/A   Overcast
11:35 PM 33.8 °F 26.4 °F 26.6 °F 75% 29.98 in 8.0 mi North 9.2 mph 25.3 mph N/A   Overcast
11:55 PM 33.8 °F 25.3 °F 26.6 °F 75% 29.98 in 10.0 mi NNE 11.5 mph 20.7 mph N/A   Overcast